ADDS METAR Data INFO
IDs: Format: Raw Decoded Include TAF

Data at: 1811 UTC 18 Feb 2018

KCFV 181752Z AUTO 19015G29KT 10SM SCT031 11/02 A3002 RMK AO2 PK WND 19031/1739 SLP169 T01060022 10106 20006 58026 $
KCFV 181652Z AUTO 19015G24KT 10SM CLR 09/01 A3006 RMK AO2 PK WND 17026/1617 SLP181 T00890011 $
KCFV 181552Z AUTO 18016KT 10SM CLR 07/01 A3007 RMK AO2 SLP188 T00670011 $
KCFV 181452Z AUTO 16009KT 10SM CLR 04/01 A3010 RMK AO2 SLP197 T00440011 56009 $
KCFV 181352Z AUTO 17009KT 10SM CLR 02/00 A3011 RMK AO2 SLP200 T00220000 $
KCFV 181252Z AUTO 18006KT 8SM CLR 01/00 A3011 RMK AO2 SLP202 T00110000
KCFV 181152Z AUTO 16008KT 8SM CLR 02/00 A3013 RMK AO2 SLP204 70003 T00170000 10022 20006 58014
KCFV 181052Z AUTO 13006KT 6SM BR CLR 01/01 A3014 RMK AO2 SLP206 T00110006
KCFV 180952Z AUTO 17006KT 6SM BR CLR 01/01 A3016 RMK AO2 SLP216 T00110006
KCFV 180852Z AUTO 17004KT 8SM CLR 02/01 A3017 RMK AO2 SLP218 T00220011 58012
KCFV 180752Z AUTO 16005KT 9SM CLR 01/00 A3019 RMK AO2 SLP227 T00110000
KCFV 180652Z AUTO 15003KT 10SM CLR 02/00 A3021 RMK AO2 SLP231 T00170000
KCFV 180552Z AUTO 15004KT 10SM CLR 02/00 A3020 RMK AO2 SLP232 T00220000 10111 21006 401671006 53001
KCFV 180452Z AUTO 16003KT 10SM CLR 02/M01 A3020 RMK AO2 SLP231 T00221011
KCFV 180352Z AUTO 11005KT 10SM CLR 01/M03 A3019 RMK AO2 SLP230 T00061028
KCFV 180252Z AUTO 00000KT 10SM CLR 02/M02 A3020 RMK AO2 SLP232 T00221022 51017
KCFV 180152Z AUTO 00000KT 10SM CLR 06/M02 A3019 RMK AO2 SLP226 T00561022
KCFV 180052Z AUTO 11003KT 10SM CLR 07/M01 A3018 RMK AO2 SLP222 T00671011
KCFV 172352Z AUTO 03006KT 10SM CLR 11/M03 A3015 RMK AO2 SLP212 T01111033 10167 20083 53012
KCFV 172252Z AUTO 01010KT 10SM CLR 16/M06 A3013 RMK AO2 SLP205 T01561056
KCFV 172152Z AUTO 36007KT 10SM CLR 16/M01 A3011 RMK AO2 SLP198 T01611006
KCFV 172052Z AUTO 34007KT 10SM CLR 15/01 A3011 RMK AO2 SLP199 T01500011 53003
KCFV 171952Z AUTO 31007KT 10SM CLR 13/03 A3010 RMK AO2 SLP195 T01280028
KCFV 171852Z AUTO 30009KT 10SM CLR 11/04 A3011 RMK AO2 SLP197 T01110039
KCFV 171752Z AUTO 26011KT 10SM SCT018 08/04 A3011 RMK AO2 SLP198 60003 T00830039 10083 20028 51017
KCFV 171721Z AUTO 25009KT 10SM BKN016 08/04 A3010 RMK AO2 T00780044
KCFV 171652Z AUTO 28009KT 9SM OVC014 06/04 A3009 RMK AO2 SLP195 T00610039
KCFV 171612Z AUTO 27010KT 8SM OVC011 05/03 A3009 RMK AO2 T00500033
KCFV 171552Z AUTO 26009KT 7SM OVC009 05/04 A3009 RMK AO2 SLP193 T00500039
KCFV 171452Z AUTO 21009KT 5SM BR OVC009 03/03 A3005 RMK AO2 RAE07 SLP182 P0000 60003 T00330028 50012
KCFV 171447Z AUTO 23006KT 5SM BR OVC009 03/03 A3006 RMK AO2 RAE07 P0000
KCFV 171417Z AUTO 22006KT 5SM BR BKN012 OVC017 03/02 A3005 RMK AO2 RAE07 P0000 T00280022
KCFV 171359Z AUTO 20006KT 3SM -RA BR FEW007 OVC015 03/03 A3004 RMK AO2 P0000 T00280028
KCFV 171352Z AUTO 23006KT 2 1/2SM -RA BR FEW007 OVC015 03/02 A3005 RMK AO2 RAB1259 SLP181 P0003 T00280022
KCFV 171345Z AUTO 24004KT 3SM -RA BR SCT007 OVC015 03/02 A3005 RMK AO2 RAB1259 P0003 T00280022
KCFV 171337Z AUTO 24004KT 3SM -RA BR BKN007 OVC014 03/02 A3005 RMK AO2 RAB1259 P0002 T00280022
KCFV 171314Z AUTO 25003KT 2 1/2SM -RA BR OVC007 03/02 A3003 RMK AO2 RAB1259 P0001 T00280022
KCFV 171252Z AUTO 00000KT 6SM BR OVC007 03/02 A3002 RMK AO2 PRESRR SLP170 T00280022
KCFV 171152Z AUTO 12005KT 6SM BR OVC008 03/02 A2999 RMK AO2 RAE26 SLP159 P0001 60022 70022 T00280022 10028 20022 58026
KCFV 171113Z AUTO 34006KT 5SM -RA BR OVC009 03/02 A3002 RMK AO2 P0001 T00280022
KCFV 171052Z AUTO 32007KT 4SM RA BR BKN010 OVC014 03/02 A3003 RMK AO2 CIG 007V013 PRESRR SLP172 P0007 T00280022
KCFV 171032Z AUTO 13003KT 4SM -RA BR OVC014 02/02 A3001 RMK AO2 P0005 T00220017
KCFV 170952Z AUTO 15004KT 4SM -RA BR OVC021 03/02 A3003 RMK AO2 SLP175 P0004 T00280017
KCFV 170928Z AUTO 23003KT 7SM -RA OVC028 03/02 A3007 RMK AO2 P0002 T00280017
KCFV 170852Z AUTO 17004KT 5SM -RA BR BKN032 OVC060 02/01 A3007 RMK AO2 SLP186 P0009 60010 T00220011 56028
KCFV 170752Z AUTO 15004KT 8SM -RA OVC060 02/M01 A3009 RMK AO2 RAB17UPB18E22 SLP193 P0001 T00221011
KCFV 170652Z AUTO 09003KT 10SM BKN095 OVC110 03/M04 A3011 RMK AO2 SLP202 T00281039